Pilot Grove, Iowa
Current Conditions -  °F | °C
As of 1:55 PM on Monday 22 Dec 2014 (Local Time) from KFSW Reporting Station
Haze Haze  
Wind Chill: 39°   Ceiling: 300
Heat Index: 43°   Visibility: 1mi
Dew Point: 43°   Wind: 7mph
Humidity: 100%   Direction: 140°SE
Pressure: 29.56"   Gusts: NA
Location:  40.76°N, 91.54°W
Report Text: KFSW 221955Z AUTO 14006KT 1SM BR OVC003 06/06 A2956 RMK AO2 P0001
Loading
Personal Weather Stations






























Interactive Weather Map New forecast layout! Learn more

10-Day Weather Forecast

Advertisements
Track Severe Weather on mobile